Time;durP1;ratioP1;P1;durP2;ratioP2;P2;SDS_P1;SDS_P2;PMS_P1;PMS_P2;Temp;Humidity;BMP_temperature;BMP_pressure;BME280_temperature;BME280_humidity;BME280_pressure;Samples;Min_cycle;Max_cycle;Signal;HPM_P1;HPM_P2
2022/05/13 00:01:54;;;;;;;4.00;3.03;;;19.30;65.00;;;;;;5100661;28;20032;-61
2022/05/13 00:04:20;;;;;;;5.35;3.33;;;19.30;65.10;;;;;;5107696;28;20032;-60
2022/05/13 00:06:46;;;;;;;4.80;2.83;;;19.30;65.10;;;;;;5107930;28;20035;-61
2022/05/13 00:09:12;;;;;;;8.02;3.08;;;19.30;65.00;;;;;;5110362;28;20031;-62
2022/05/13 00:11:38;;;;;;;5.47;3.05;;;19.30;65.30;;;;;;5106662;28;20061;-61
2022/05/13 00:14:04;;;;;;;3.55;2.65;;;19.20;65.40;;;;;;5102010;28;20061;-60
2022/05/13 00:16:30;;;;;;;4.80;2.65;;;19.20;65.60;;;;;;5101917;28;20032;-62
2022/05/13 00:18:56;;;;;;;8.25;2.90;;;19.20;66.00;;;;;;5101078;28;20359;-61
2022/05/13 00:21:22;;;;;;;4.50;2.78;;;19.40;66.00;;;;;;5104930;28;20070;-61
2022/05/13 00:23:47;;;;;;;3.03;2.72;;;19.20;65.80;;;;;;5105910;28;20354;-61
2022/05/13 00:26:13;;;;;;;3.20;2.67;;;19.20;66.00;;;;;;5105378;28;20340;-61
2022/05/13 00:28:39;;;;;;;6.88;3.10;;;19.20;66.10;;;;;;5094912;28;20066;-61
2022/05/13 00:31:05;;;;;;;4.80;2.38;;;19.20;66.40;;;;;;5104069;28;20028;-61
2022/05/13 00:33:32;;;;;;;2.90;2.60;;;19.20;66.40;;;;;;5107341;28;20498;-60
2022/05/13 00:35:57;;;;;;;4.00;2.60;;;19.20;66.50;;;;;;5090551;28;20226;-60
2022/05/13 00:38:23;;;;;;;4.32;2.55;;;19.20;66.50;;;;;;5098529;28;20023;-60
2022/05/13 00:40:49;;;;;;;2.80;2.40;;;19.20;66.40;;;;;;5103098;28;20028;-61
2022/05/13 00:43:44;;;;;;;5.20;3.20;;;19.20;66.40;;;;;;5097373;28;20035;-61
2022/05/13 00:46:10;;;;;;;4.28;2.92;;;19.20;67.80;;;;;;5105040;28;20023;-60
2022/05/13 00:48:36;;;;;;;3.58;3.00;;;19.20;66.50;;;;;;5101216;28;20024;-61
2022/05/13 00:51:04;;;;;;;5.10;3.10;;;19.20;66.90;;;;;;5102247;28;20805;-62
2022/05/13 00:53:30;;;;;;;4.50;3.25;;;19.20;67.10;;;;;;5097431;28;20020;-62
2022/05/13 00:55:56;;;;;;;4.32;3.28;;;19.20;67.00;;;;;;5103094;28;20169;-61
2022/05/13 00:58:22;;;;;;;3.30;2.88;;;19.20;67.10;;;;;;5096148;28;20063;-61
2022/05/13 01:00:48;;;;;;;5.95;3.10;;;19.20;67.00;;;;;;5101443;28;20088;-62
2022/05/13 01:03:15;;;;;;;4.07;3.20;;;19.20;67.20;;;;;;5100475;28;20043;-63
2022/05/13 01:05:43;;;;;;;5.35;3.17;;;19.20;67.30;;;;;;5108676;28;20020;-60
2022/05/13 01:08:11;;;;;;;5.18;3.03;;;19.10;67.60;;;;;;5097318;28;20127;-62
2022/05/13 01:10:39;;;;;;;3.80;3.40;;;19.20;67.90;;;;;;5100807;28;20054;-61
2022/05/13 01:13:09;;;;;;;4.45;3.40;;;19.20;68.00;;;;;;5096035;28;20084;-60
2022/05/13 01:15:37;;;;;;;5.60;3.28;;;19.20;68.00;;;;;;5096592;28;20112;-62
2022/05/13 01:18:07;;;;;;;6.63;3.33;;;19.20;68.30;;;;;;5102438;28;20056;-61
2022/05/13 01:20:36;;;;;;;7.28;3.45;;;19.20;69.00;;;;;;5103614;28;20012;-61
2022/05/13 01:23:06;;;;;;;4.70;3.22;;;19.20;68.50;;;;;;5095952;28;20162;-61
2022/05/13 01:25:36;;;;;;;6.22;3.80;;;19.20;68.60;;;;;;5101354;28;20036;-60
2022/05/13 01:28:26;;;;;;;4.60;3.50;;;19.20;68.40;;;;;;5103224;27;20052;-61
2022/05/13 01:30:55;;;;;;;4.47;2.90;;;19.20;69.50;;;;;;5097329;28;20063;-60
2022/05/13 01:33:21;;;;;;;5.10;3.53;;;19.20;68.40;;;;;;5104539;28;20138;-60
2022/05/13 01:35:51;;;;;;;4.32;3.75;;;19.20;68.20;;;;;;5097466;28;20024;-60
2022/05/13 01:38:21;;;;;;;6.53;3.35;;;19.20;68.40;;;;;;5098441;28;20032;-62
2022/05/13 01:40:47;;;;;;;7.50;3.42;;;19.20;68.30;;;;;;5107198;28;20016;-61
2022/05/13 01:43:13;;;;;;;5.95;2.85;;;19.20;68.40;;;;;;5104032;28;20136;-60
2022/05/13 01:45:39;;;;;;;4.43;3.40;;;19.10;68.50;;;;;;5107990;28;20060;-60
2022/05/13 01:48:07;;;;;;;5.38;3.20;;;19.10;68.60;;;;;;5106520;28;20096;-62
2022/05/13 01:50:33;;;;;;;7.40;3.50;;;19.10;68.80;;;;;;5104285;28;20047;-61
2022/05/13 01:52:59;;;;;;;6.18;3.40;;;19.10;68.90;;;;;;5106514;28;20020;-61
2022/05/13 01:55:24;;;;;;;6.32;3.60;;;19.10;68.90;;;;;;5096593;28;20576;-60
2022/05/13 01:57:51;;;;;;;4.25;3.45;;;19.10;68.90;;;;;;5108224;28;20047;-61
2022/05/13 02:00:17;;;;;;;7.82;4.10;;;19.10;68.90;;;;;;5098044;28;20020;-62
2022/05/13 02:05:29;;;;;;;4.90;3.22;;;19.10;69.00;;;;;;5087699;28;20063;-61
2022/05/13 02:07:54;;;;;;;4.22;3.65;;;19.10;69.00;;;;;;5092522;28;20040;-60
2022/05/13 02:10:20;;;;;;;6.20;3.80;;;19.10;69.20;;;;;;5100085;28;20028;-61
2022/05/13 02:12:46;;;;;;;4.57;3.45;;;19.10;69.10;;;;;;5098001;28;20037;-62
2022/05/13 02:15:12;;;;;;;3.72;3.38;;;19.10;69.10;;;;;;5094999;28;20050;-62
2022/05/13 02:17:37;;;;;;;4.38;3.47;;;19.10;69.30;;;;;;5098944;28;20059;-60
2022/05/13 02:20:07;;;;;;;8.65;3.78;;;19.10;69.30;;;;;;5094548;28;20436;-61
2022/05/13 02:22:33;;;;;;;5.90;3.70;;;19.10;69.70;;;;;;5102101;28;20031;-61
2022/05/13 02:25:00;;;;;;;4.55;3.35;;;19.10;69.40;;;;;;5084588;28;20452;-61
2022/05/13 02:27:26;;;;;;;6.30;3.75;;;19.10;69.50;;;;;;5108594;28;20020;-60
2022/05/13 02:29:53;;;;;;;5.40;3.40;;;19.10;69.40;;;;;;5105878;28;20035;-61
2022/05/13 02:32:19;;;;;;;6.55;3.42;;;19.10;69.30;;;;;;5101124;28;20022;-61
2022/05/13 02:34:45;;;;;;;5.68;4.05;;;19.10;69.30;;;;;;5092353;28;20066;-60
2022/05/13 02:37:10;;;;;;;4.50;3.50;;;19.20;69.50;;;;;;5097127;28;20032;-62
2022/05/13 02:39:36;;;;;;;5.80;3.70;;;19.10;69.60;;;;;;5098913;28;20031;-61
2022/05/13 02:42:02;;;;;;;7.35;3.42;;;19.20;69.40;;;;;;5104555;28;20047;-61
2022/05/13 02:44:27;;;;;;;6.13;3.67;;;19.20;69.40;;;;;;5096587;28;20036;-62
2022/05/13 02:46:53;;;;;;;4.60;3.70;;;19.10;69.40;;;;;;5101091;28;20040;-61
2022/05/13 02:49:20;;;;;;;5.28;3.78;;;19.10;69.30;;;;;;5105491;28;20020;-61
2022/05/13 02:51:46;;;;;;;5.72;3.42;;;19.10;69.20;;;;;;5114738;28;20030;-62
2022/05/13 02:54:12;;;;;;;8.48;3.85;;;19.10;69.50;;;;;;5093375;28;20032;-62
2022/05/13 02:56:38;;;;;;;6.32;3.70;;;19.10;69.70;;;;;;5112268;28;20024;-61
2022/05/13 02:59:04;;;;;;;5.07;3.65;;;19.00;69.70;;;;;;5098523;28;20024;-61
2022/05/13 03:01:32;;;;;;;5.05;4.00;;;19.00;69.90;;;;;;5103336;28;20028;-62
2022/05/13 03:03:58;;;;;;;6.13;3.88;;;19.00;69.80;;;;;;5095101;28;20032;-61
2022/05/13 03:06:25;;;;;;;5.57;3.90;;;19.00;70.00;;;;;;5090482;28;20035;-61
2022/05/13 03:08:51;;;;;;;4.55;3.70;;;19.00;70.00;;;;;;5090425;28;20044;-61
2022/05/13 03:11:18;;;;;;;5.53;3.72;;;18.90;70.00;;;;;;5101635;28;20032;-61
2022/05/13 03:13:44;;;;;;;7.25;5.55;;;18.90;70.20;;;;;;5091715;28;20025;-61
2022/05/13 03:16:14;;;;;;;5.72;4.53;;;18.90;70.50;;;;;;5104838;28;20039;-62
2022/05/13 03:18:41;;;;;;;5.93;4.10;;;18.90;70.70;;;;;;5108500;28;20023;-61
2022/05/13 03:21:08;;;;;;;7.93;4.70;;;18.90;70.60;;;;;;5101386;28;20028;-61
2022/05/13 03:23:33;;;;;;;4.70;4.00;;;18.90;70.80;;;;;;5101457;28;20051;-61
2022/05/13 03:25:59;;;;;;;5.18;4.05;;;18.90;70.70;;;;;;5099598;28;20054;-61
2022/05/13 03:28:25;;;;;;;5.07;3.72;;;18.90;70.80;;;;;;5115491;28;20066;-61
2022/05/13 03:30:51;;;;;;;9.70;3.95;;;18.90;70.80;;;;;;5103752;28;20082;-61
2022/05/13 03:33:18;;;;;;;4.47;3.83;;;18.90;70.80;;;;;;5105726;28;20032;-61
2022/05/13 03:35:44;;;;;;;5.20;4.10;;;18.90;70.90;;;;;;5108806;28;20025;-61
2022/05/13 03:38:10;;;;;;;6.32;4.00;;;18.90;70.90;;;;;;5101498;28;20040;-61
2022/05/13 03:40:36;;;;;;;4.80;3.92;;;18.90;70.90;;;;;;5096667;28;20047;-60
2022/05/13 03:43:03;;;;;;;5.15;3.67;;;18.90;71.00;;;;;;5105567;28;20032;-61
2022/05/13 03:45:30;;;;;;;5.40;3.70;;;18.90;70.80;;;;;;5106203;28;20020;-61
2022/05/13 03:47:56;;;;;;;6.60;3.88;;;18.90;70.70;;;;;;5103928;28;20028;-61
2022/05/13 03:50:22;;;;;;;7.32;3.42;;;18.90;70.80;;;;;;5108916;28;20376;-60
2022/05/13 03:52:47;;;;;;;8.88;4.32;;;18.90;70.80;;;;;;5109682;28;20053;-61
2022/05/13 03:55:13;;;;;;;5.00;3.92;;;18.90;71.00;;;;;;5102719;28;20036;-60
2022/05/13 03:57:39;;;;;;;5.40;4.10;;;18.90;71.10;;;;;;5103360;28;20452;-61
2022/05/13 04:00:06;;;;;;;4.53;3.67;;;18.90;71.10;;;;;;5107291;28;20044;-61
2022/05/13 04:02:32;;;;;;;8.32;3.40;;;18.90;71.00;;;;;;5101465;28;20012;-60
2022/05/13 04:10:27;;;;;;;3.47;2.50;;;18.90;70.50;;;;;;5108859;28;20034;-61
2022/05/13 04:18:21;;;;;;;5.15;2.60;;;18.90;70.30;;;;;;5102322;28;20038;-61
2022/05/13 04:20:47;;;;;;;2.95;2.50;;;18.80;70.10;;;;;;5105279;28;20043;-61
2022/05/13 04:23:14;;;;;;;4.10;2.20;;;18.80;70.30;;;;;;5101995;28;20012;-61
2022/05/13 04:25:40;;;;;;;5.65;2.53;;;18.80;70.60;;;;;;5108620;28;20028;-61
2022/05/13 04:28:05;;;;;;;3.78;2.53;;;18.80;70.70;;;;;;5107096;28;20045;-60
2022/05/13 04:30:31;;;;;;;6.45;2.70;;;18.80;70.70;;;;;;5102606;28;20023;-61
2022/05/13 04:32:57;;;;;;;4.07;2.83;;;18.80;71.00;;;;;;5095025;28;20028;-61
2022/05/13 04:35:22;;;;;;;5.13;2.60;;;18.70;71.20;;;;;;5103149;28;20032;-62
2022/05/13 04:37:48;;;;;;;5.65;2.90;;;18.80;71.20;;;;;;5104080;28;20036;-61
2022/05/13 04:40:14;;;;;;;5.47;3.58;;;18.80;71.20;;;;;;5096203;28;20046;-61
2022/05/13 04:42:51;;;;;;;3.80;3.00;;;18.80;71.10;;;;;;5097744;28;20036;-63
2022/05/13 04:45:19;;;;;;;5.60;2.95;;;18.80;71.10;;;;;;5100661;28;20034;-61
2022/05/13 04:50:28;;;;;;;4.78;3.40;;;18.80;71.20;;;;;;5101819;28;20134;-61
2022/05/13 04:52:54;;;;;;;5.03;3.50;;;18.90;71.20;;;;;;5103488;28;20031;-61
2022/05/13 04:55:19;;;;;;;4.60;3.40;;;18.90;71.40;;;;;;5106147;28;20023;-61
2022/05/13 04:57:45;;;;;;;9.18;3.08;;;18.90;71.40;;;;;;5096799;28;20051;-62
2022/05/13 05:00:11;;;;;;;5.55;3.33;;;18.90;71.40;;;;;;5103235;28;20032;-60
2022/05/13 05:02:37;;;;;;;8.23;3.15;;;18.90;71.50;;;;;;5098069;28;20024;-61
2022/05/13 05:05:03;;;;;;;6.35;2.72;;;18.90;71.50;;;;;;5099284;28;20218;-61
2022/05/13 05:07:28;;;;;;;7.88;3.35;;;19.00;71.40;;;;;;5099390;28;20047;-62
2022/05/13 05:09:54;;;;;;;3.13;2.45;;;19.00;71.40;;;;;;5092588;28;20058;-62
2022/05/13 05:12:19;;;;;;;3.38;2.60;;;19.00;71.30;;;;;;5095781;28;20053;-61
2022/05/13 05:14:45;;;;;;;3.95;2.78;;;19.00;71.30;;;;;;5094697;28;20028;-61
2022/05/13 05:17:11;;;;;;;4.18;3.08;;;19.10;71.20;;;;;;5098002;28;20067;-62
2022/05/13 05:19:36;;;;;;;10.10;2.42;;;19.10;71.00;;;;;;5098916;28;20063;-60
2022/05/13 05:22:05;;;;;;;3.42;2.65;;;19.10;70.90;;;;;;5093072;28;20166;-61
2022/05/13 05:24:31;;;;;;;3.78;2.65;;;19.20;70.90;;;;;;5090964;28;20055;-62
2022/05/13 05:26:57;;;;;;;3.00;2.65;;;19.20;70.80;;;;;;5093720;28;20028;-61
2022/05/13 05:29:23;;;;;;;4.55;2.60;;;19.30;70.80;;;;;;5104549;28;20107;-62
2022/05/13 05:31:49;;;;;;;3.25;2.63;;;19.30;70.60;;;;;;5100882;28;20052;-60
2022/05/13 05:34:16;;;;;;;3.28;2.65;;;19.30;70.50;;;;;;5103039;28;20059;-61
2022/05/13 05:36:42;;;;;;;3.25;2.95;;;19.40;70.50;;;;;;5096726;28;20028;-62
2022/05/13 05:39:08;;;;;;;4.63;2.40;;;19.40;70.50;;;;;;5098262;28;20056;-61
2022/05/13 05:41:34;;;;;;;5.30;2.55;;;19.40;70.50;;;;;;5093568;28;20048;-61
2022/05/13 05:43:59;;;;;;;4.63;2.67;;;19.50;70.50;;;;;;5101736;28;20080;-61
2022/05/13 05:46:25;;;;;;;3.17;2.72;;;19.60;70.60;;;;;;5094630;28;20376;-61
2022/05/13 05:48:51;;;;;;;4.25;2.58;;;19.60;70.40;;;;;;5104704;28;20415;-62
2022/05/13 05:51:17;;;;;;;3.25;2.50;;;19.70;70.40;;;;;;5097276;28;20054;-61
2022/05/13 05:59:11;;;;;;;;;;;19.80;70.30;;;;;;5100086;28;20051;-60
2022/05/13 06:01:36;;;;;;;3.05;2.30;;;19.90;69.50;;;;;;5105767;28;19907;-61
2022/05/13 06:04:03;;;;;;;3.92;2.63;;;19.90;68.60;;;;;;5100377;28;20438;-62
2022/05/13 06:06:29;;;;;;;7.55;2.72;;;19.80;68.40;;;;;;5100938;28;20173;-63
2022/05/13 06:08:55;;;;;;;7.35;2.60;;;19.80;68.40;;;;;;5099915;28;20032;-61
2022/05/13 06:11:23;;;;;;;5.05;2.70;;;19.70;68.40;;;;;;5100797;28;20054;-61
2022/05/13 06:13:52;;;;;;;5.93;2.65;;;19.70;68.60;;;;;;5091602;28;20027;-62
2022/05/13 06:16:18;;;;;;;4.18;2.72;;;19.70;68.80;;;;;;5102697;28;20221;-61
2022/05/13 06:18:44;;;;;;;4.85;2.85;;;19.70;68.80;;;;;;5108278;28;20055;-61
2022/05/13 06:21:09;;;;;;;2.90;2.40;;;19.70;68.80;;;;;;5097671;28;20082;-61
2022/05/13 06:23:35;;;;;;;7.13;2.60;;;19.60;68.70;;;;;;5098479;28;20079;-61
2022/05/13 06:26:02;;;;;;;2.63;2.03;;;19.60;68.60;;;;;;5095613;28;20111;-60
2022/05/13 06:28:28;;;;;;;4.00;1.90;;;19.60;68.50;;;;;;5101691;28;20040;-61
2022/05/13 06:30:54;;;;;;;3.65;2.30;;;19.60;68.80;;;;;;5097500;28;20062;-60
2022/05/13 06:33:21;;;;;;;3.05;2.40;;;19.60;68.60;;;;;;5105340;28;20024;-61
2022/05/13 06:35:47;;;;;;;5.53;2.33;;;19.70;68.80;;;;;;5102722;28;20046;-60
2022/05/13 06:38:20;;;;;;;6.78;2.35;;;19.60;68.40;;;;;;5106885;28;20028;-61
2022/05/13 06:40:47;;;;;;;5.50;2.43;;;19.60;68.20;;;;;;5097954;28;20059;-61
2022/05/13 06:43:13;;;;;;;5.28;2.58;;;19.60;68.10;;;;;;5097555;28;20028;-60
2022/05/13 06:45:41;;;;;;;4.85;2.50;;;19.60;68.00;;;;;;5103807;28;20031;-62
2022/05/13 06:48:07;;;;;;;4.05;2.00;;;19.50;68.30;;;;;;5102048;28;20099;-62
2022/05/13 06:50:33;;;;;;;5.10;2.38;;;19.50;68.80;;;;;;5106602;28;20102;-61
2022/05/13 06:52:59;;;;;;;7.00;2.72;;;19.50;68.10;;;;;;5103736;28;20027;-61
2022/05/13 06:55:24;;;;;;;5.78;2.67;;;19.50;68.20;;;;;;5105382;28;20028;-61
2022/05/13 06:57:50;;;;;;;5.05;2.85;;;19.40;67.90;;;;;;5101770;28;20027;-61
2022/05/13 07:00:17;;;;;;;7.00;2.65;;;19.40;68.10;;;;;;5091879;28;20031;-61
2022/05/13 07:02:43;;;;;;;4.35;2.50;;;19.30;68.40;;;;;;5103517;28;20020;-61
2022/05/13 07:05:11;;;;;;;7.53;2.95;;;19.30;68.80;;;;;;5104633;28;20028;-61
2022/05/13 07:07:36;;;;;;;9.60;3.47;;;19.30;68.60;;;;;;5095836;28;20655;-62
2022/05/13 07:10:03;;;;;;;6.93;3.08;;;19.30;68.50;;;;;;5098746;28;20035;-61
2022/05/13 07:12:29;;;;;;;4.97;3.00;;;19.30;68.30;;;;;;5103923;28;20455;-61
2022/05/13 07:14:55;;;;;;;3.83;2.70;;;19.30;68.40;;;;;;5100014;28;20049;-61
2022/05/13 07:17:21;;;;;;;4.65;2.90;;;19.30;68.70;;;;;;5095599;28;20024;-61
2022/05/13 07:19:47;;;;;;;5.90;2.83;;;19.30;68.90;;;;;;5091385;28;20020;-60
2022/05/13 07:22:13;;;;;;;5.05;2.90;;;19.30;68.70;;;;;;5092677;28;20039;-61
2022/05/13 07:24:39;;;;;;;7.10;2.90;;;19.30;68.60;;;;;;5092735;28;20033;-61
2022/05/13 07:27:06;;;;;;;7.53;3.20;;;19.30;68.70;;;;;;5089172;28;20024;-61
2022/05/13 07:29:32;;;;;;;6.43;3.20;;;19.30;68.70;;;;;;5097929;28;20028;-61
2022/05/13 07:31:58;;;;;;;5.10;2.95;;;19.30;68.90;;;;;;5091060;28;20036;-62
2022/05/13 07:34:24;;;;;;;5.72;3.10;;;19.30;69.00;;;;;;5096198;28;20035;-61
2022/05/13 07:36:53;;;;;;;6.13;2.75;;;19.30;69.20;;;;;;5097425;28;20034;-61
2022/05/13 07:42:08;;;;;;;10.35;3.10;;;19.30;69.50;;;;;;5095274;28;20077;-61
2022/05/13 07:44:34;;;;;;;5.03;2.83;;;19.30;69.60;;;;;;5099635;28;20028;-61
2022/05/13 07:47:01;;;;;;;6.90;3.55;;;19.40;69.70;;;;;;5097587;28;20035;-61
2022/05/13 07:49:27;;;;;;;5.95;3.10;;;19.30;69.60;;;;;;5100565;28;20048;-61
2022/05/13 07:51:53;;;;;;;6.78;3.08;;;19.40;69.40;;;;;;5102057;28;20024;-61
2022/05/13 07:54:18;;;;;;;5.32;2.85;;;19.40;69.20;;;;;;5106152;28;20055;-61
2022/05/13 07:56:44;;;;;;;6.32;3.20;;;19.40;69.00;;;;;;5102146;28;20028;-62
2022/05/13 07:59:10;;;;;;;6.53;3.20;;;19.40;68.80;;;;;;5092251;28;20028;-61
2022/05/13 08:01:36;;;;;;;6.68;2.95;;;19.40;68.50;;;;;;5097280;28;20031;-61
2022/05/13 08:04:02;;;;;;;5.97;2.88;;;19.40;68.40;;;;;;5099782;28;20029;-61
2022/05/13 08:06:28;;;;;;;7.65;3.15;;;19.30;68.50;;;;;;5093667;28;20100;-62
2022/05/13 08:08:58;;;;;;;7.55;3.38;;;19.30;68.30;;;;;;5104793;28;20032;-62
2022/05/13 08:11:27;;;;;;;5.40;3.20;;;19.20;68.30;;;;;;5104435;28;20024;-60
2022/05/13 08:13:53;;;;;;;5.40;3.00;;;19.20;68.60;;;;;;5076990;28;20027;-62
2022/05/13 08:16:24;;;;;;;5.00;3.17;;;19.20;68.80;;;;;;5075412;28;20025;-62
2022/05/13 08:18:49;;;;;;;9.55;3.63;;;19.10;69.40;;;;;;5075221;28;20037;-61
2022/05/13 08:21:15;;;;;;;6.57;3.35;;;19.10;69.40;;;;;;5084878;28;20028;-61
2022/05/13 08:23:41;;;;;;;5.13;3.33;;;19.10;69.50;;;;;;5080656;28;20048;-62
2022/05/13 08:26:07;;;;;;;7.90;3.63;;;19.20;69.70;;;;;;5079815;28;20021;-61
2022/05/13 08:28:33;;;;;;;8.18;4.00;;;19.20;70.10;;;;;;5087277;28;20086;-61
2022/05/13 08:31:00;;;;;;;5.15;3.28;;;19.20;70.20;;;;;;5080422;28;20020;-61
2022/05/13 08:33:25;;;;;;;5.22;3.58;;;19.20;70.30;;;;;;5073149;28;20059;-61
2022/05/13 08:35:54;;;;;;;5.82;3.80;;;19.20;70.20;;;;;;5082479;28;20036;-61
2022/05/13 08:38:23;;;;;;;6.70;4.15;;;19.20;70.40;;;;;;5087524;28;20020;-61
2022/05/13 08:40:50;;;;;;;7.93;3.92;;;19.30;70.70;;;;;;5073253;28;20446;-61
2022/05/13 08:43:23;;;;;;;8.52;3.85;;;19.40;70.50;;;;;;5076774;28;20096;-61
2022/05/13 08:45:49;;;;;;;6.45;3.80;;;19.40;71.10;;;;;;5080941;28;20043;-61
2022/05/13 08:48:20;;;;;;;6.22;3.50;;;19.50;70.80;;;;;;5083645;28;20850;-61
2022/05/13 08:50:56;;;;;;;6.30;3.33;;;19.60;70.80;;;;;;5082994;28;20041;-61
2022/05/13 08:53:28;;;;;;;7.90;3.22;;;19.70;71.70;;;;;;5087924;28;20052;-61
2022/05/13 08:56:01;;;;;;;5.95;3.28;;;19.80;70.50;;;;;;5085237;28;20025;-61
2022/05/13 08:58:37;;;;;;;8.73;3.10;;;19.90;70.50;;;;;;5083585;28;20039;-61
2022/05/13 09:01:09;;;;;;;5.13;2.85;;;20.00;70.50;;;;;;5083754;28;20036;-61
2022/05/13 09:03:34;;;;;;;6.07;3.17;;;20.10;69.90;;;;;;5084005;28;20486;-61
2022/05/13 09:06:16;;;;;;;5.95;2.85;;;20.20;69.80;;;;;;5092752;28;20024;-62
2022/05/13 09:08:42;;;;;;;8.20;2.97;;;20.40;68.70;;;;;;5083245;28;20032;-62
2022/05/13 09:11:22;;;;;;;5.95;2.70;;;20.50;68.20;;;;;;5077517;28;20027;-61
2022/05/13 09:14:26;;;;;;;8.38;2.38;;;20.60;67.90;;;;;;5082352;28;20042;-62
2022/05/13 09:17:26;;;;;;;3.90;2.10;;;20.60;66.60;;;;;;5071864;28;20040;-61
2022/05/13 09:19:59;;;;;;;6.15;2.40;;;20.70;65.80;;;;;;5081390;28;20024;-61
2022/05/13 09:22:39;;;;;;;9.07;2.38;;;20.60;64.60;;;;;;5072568;28;20017;-62
2022/05/13 09:25:06;;;;;;;6.47;2.60;;;20.60;64.80;;;;;;5081029;28;20021;-61
2022/05/13 09:27:50;;;;;;;11.02;2.22;;;20.50;64.90;;;;;;5075683;28;20036;-62
2022/05/13 09:30:21;;;;;;;11.20;2.80;;;20.50;64.70;;;;;;5079215;28;20051;-61
2022/05/13 09:32:48;;;;;;;8.98;2.60;;;20.50;64.60;;;;;;5084694;28;20024;-61
2022/05/13 09:35:13;;;;;;;6.53;2.20;;;20.50;65.50;;;;;;5073064;28;20341;-62
2022/05/13 09:37:42;;;;;;;13.73;3.20;;;20.40;65.40;;;;;;5077157;28;20040;-62
2022/05/13 09:40:17;;;;;;;6.13;2.45;;;20.40;65.50;;;;;;5079373;28;20064;-62
2022/05/13 09:42:47;;;;;;;4.72;2.42;;;20.50;65.60;;;;;;5071943;28;20028;-61
2022/05/13 09:45:26;;;;;;;5.70;2.10;;;20.50;65.40;;;;;;5073060;28;20028;-61
2022/05/13 09:48:08;;;;;;;8.32;2.58;;;20.60;66.20;;;;;;5073865;28;20039;-61
2022/05/13 09:50:43;;;;;;;11.30;2.75;;;20.70;66.60;;;;;;5078947;28;20175;-61
2022/05/13 09:53:21;;;;;;;8.75;2.58;;;20.80;65.50;;;;;;5076476;28;20025;-61
2022/05/13 09:55:49;;;;;;;7.72;2.50;;;21.00;64.90;;;;;;5076379;28;20048;-61
2022/05/13 09:58:17;;;;;;;7.32;2.42;;;21.30;64.60;;;;;;5068399;28;20631;-62
2022/05/13 10:00:45;;;;;;;8.43;2.40;;;21.50;63.90;;;;;;5080680;28;20017;-62
2022/05/13 10:03:26;;;;;;;6.20;2.50;;;21.70;62.90;;;;;;5073434;28;20068;-62
2022/05/13 10:06:12;;;;;;;8.50;2.70;;;21.80;61.40;;;;;;5077102;28;20089;-61
2022/05/13 10:13:57;;;;;;;7.03;2.42;;;21.90;61.00;;;;;;5066373;28;20078;-61
2022/05/13 10:14:32;;;;;;;11.02;3.28;;;21.90;60.30;;;;;;5079897;28;20075;-61
2022/05/13 10:17:18;;;;;;;6.85;2.88;;;21.90;60.00;;;;;;5083522;28;20101;-61
2022/05/13 10:20:07;;;;;;;8.30;2.95;;;21.90;59.00;;;;;;5081397;28;20024;-61
2022/05/13 10:22:45;;;;;;;9.73;2.58;;;21.80;59.50;;;;;;5080278;28;20020;-61
2022/05/13 10:25:20;;;;;;;6.97;2.80;;;21.80;59.80;;;;;;5085077;28;20032;-61
2022/05/13 10:27:57;;;;;;;12.43;3.47;;;21.80;58.80;;;;;;5071942;28;20052;-60
2022/05/13 10:30:41;;;;;;;10.23;3.00;;;21.70;58.80;;;;;;5079198;28;20071;-62
2022/05/13 10:33:24;;;;;;;7.63;3.55;;;21.60;59.00;;;;;;5071500;28;20033;-62
2022/05/13 10:36:26;;;;;;;7.78;3.33;;;21.50;58.80;;;;;;5074682;28;20519;-61
2022/05/13 10:39:22;;;;;;;7.43;2.92;;;21.40;59.50;;;;;;5082011;28;20040;-61
2022/05/13 10:41:52;;;;;;;11.82;3.05;;;21.40;61.20;;;;;;5075797;28;20028;-61
2022/05/13 10:44:46;;;;;;;6.20;2.63;;;21.40;61.10;;;;;;5075981;28;20028;-61
2022/05/13 10:47:41;;;;;;;6.75;2.80;;;21.60;61.30;;;;;;5075797;28;20028;-61
2022/05/13 10:50:33;;;;;;;7.25;2.85;;;21.80;60.50;;;;;;5086697;28;20052;-62
2022/05/13 10:53:15;;;;;;;11.48;3.40;;;22.00;59.90;;;;;;5082983;28;20012;-61
2022/05/13 10:55:59;;;;;;;11.98;3.78;;;22.20;59.40;;;;;;5081729;28;20013;-61
2022/05/13 10:59:06;;;;;;;8.03;3.10;;;22.30;59.40;;;;;;5071841;28;20033;-61
2022/05/13 11:01:48;;;;;;;8.63;2.95;;;22.50;59.10;;;;;;5079327;28;20040;-62
2022/05/13 11:04:16;;;;;;;8.15;3.95;;;22.50;58.40;;;;;;5084133;28;20107;-62
2022/05/13 11:07:18;;;;;;;8.23;3.58;;;22.60;57.50;;;;;;5087307;28;20032;-61
2022/05/13 11:10:08;;;;;;;8.35;2.95;;;22.60;57.70;;;;;;5078560;28;20111;-62
2022/05/13 11:12:41;;;;;;;7.72;3.13;;;22.70;58.00;;;;;;5072849;28;20091;-62
2022/05/13 11:15:20;;;;;;;11.07;3.05;;;22.80;57.40;;;;;;5083098;28;20024;-62
2022/05/13 11:17:57;;;;;;;8.85;3.05;;;22.80;57.50;;;;;;5072464;28;20032;-61
2022/05/13 11:20:48;;;;;;;5.97;2.75;;;22.90;57.70;;;;;;5080961;28;20122;-63
2022/05/13 11:23:29;;;;;;;12.45;3.22;;;22.90;57.60;;;;;;5063642;28;20132;-62
2022/05/13 11:26:28;;;;;;;7.85;2.83;;;23.00;57.70;;;;;;5077766;28;20107;-63
2022/05/13 11:29:07;;;;;;;8.05;3.60;;;23.00;57.00;;;;;;5073992;28;20071;-61
2022/05/13 11:31:40;;;;;;;7.65;2.72;;;23.00;56.00;;;;;;5082305;28;20021;-63
2022/05/13 11:34:31;;;;;;;11.60;3.45;;;23.00;55.30;;;;;;5090799;28;20036;-63
2022/05/13 11:37:05;;;;;;;9.88;3.10;;;23.00;55.30;;;;;;5080143;28;20032;-62
2022/05/13 11:39:54;;;;;;;8.65;3.42;;;23.00;55.30;;;;;;5081893;28;20096;-63
2022/05/13 11:45:42;;;;;;;7.20;3.45;;;23.10;55.10;;;;;;5086375;28;20039;-62
2022/05/13 11:48:28;;;;;;;8.00;2.88;;;23.20;54.70;;;;;;5086723;28;20036;-63
2022/05/13 11:51:06;;;;;;;10.48;3.08;;;23.20;53.80;;;;;;5088522;28;20055;-60
2022/05/13 11:53:44;;;;;;;8.50;2.95;;;23.20;53.90;;;;;;5083746;28;20043;-64
2022/05/13 11:56:32;;;;;;;7.13;2.70;;;23.10;53.80;;;;;;5078376;28;20494;-63
2022/05/13 11:59:01;;;;;;;4.07;2.45;;;23.10;53.60;;;;;;5083320;28;20027;-62
2022/05/13 12:01:36;;;;;;;9.95;3.15;;;23.10;53.70;;;;;;5085686;28;20025;-63
2022/05/13 12:04:17;;;;;;;11.25;2.83;;;23.10;53.30;;;;;;5073511;28;20040;-63
2022/05/13 12:06:51;;;;;;;8.50;3.05;;;23.10;53.40;;;;;;5075869;28;20032;-64
2022/05/13 12:09:27;;;;;;;8.50;3.00;;;23.10;54.20;;;;;;5072727;28;20040;-63
2022/05/13 12:12:37;;;;;;;7.65;2.83;;;23.20;53.90;;;;;;5088328;28;20059;-62
2022/05/13 12:15:39;;;;;;;6.75;2.47;;;23.30;53.40;;;;;;5068537;28;20039;-63
2022/05/13 12:18:20;;;;;;;9.48;2.90;;;23.40;52.80;;;;;;5029257;28;20040;-63
2022/05/13 12:21:09;;;;;;;6.47;2.50;;;23.40;53.30;;;;;;5051974;28;20029;-62
2022/05/13 12:23:47;;;;;;;10.15;2.20;;;23.30;51.70;;;;;;5055456;28;20551;-63
2022/05/13 12:26:13;;;;;;;6.13;2.47;;;23.30;53.60;;;;;;5045252;28;20033;-62
2022/05/13 12:28:56;;;;;;;11.80;2.97;;;23.20;53.50;;;;;;5050105;28;20106;-64
2022/05/13 12:31:22;;;;;;;7.50;2.63;;;23.10;53.60;;;;;;5053179;28;20064;-63
2022/05/13 12:39:52;;;;;;;14.75;2.85;;;23.10;54.00;;;;;;5055681;28;20047;-63
2022/05/13 12:42:54;;;;;;;7.15;2.50;;;23.10;53.50;;;;;;5038126;28;20036;-63
2022/05/13 12:45:45;;;;;;;6.40;2.13;;;23.10;53.50;;;;;;5051116;28;20029;-63
2022/05/13 12:48:14;;;;;;;5.85;2.28;;;23.10;54.50;;;;;;5045021;28;20048;-63
2022/05/13 12:51:12;;;;;;;7.05;2.13;;;23.30;54.60;;;;;;5081155;28;20045;-63
2022/05/13 12:53:58;;;;;;;6.70;2.25;;;23.60;55.20;;;;;;5076232;28;20031;-62
2022/05/13 12:56:36;;;;;;;8.95;2.83;;;24.00;53.70;;;;;;5081811;28;20036;-63
2022/05/13 12:59:13;;;;;;;8.77;2.67;;;24.20;52.40;;;;;;5084553;28;20119;-62
2022/05/13 13:01:42;;;;;;;11.75;2.50;;;24.40;50.50;;;;;;5085444;28;20029;-63
2022/05/13 13:04:09;;;;;;;6.00;1.95;;;24.50;50.70;;;;;;5083522;28;20120;-62
2022/05/13 13:06:47;;;;;;;5.70;2.10;;;24.50;51.20;;;;;;5079103;28;20017;-60
2022/05/13 13:09:32;;;;;;;4.47;1.80;;;24.60;50.90;;;;;;5077312;28;20040;-62
2022/05/13 13:12:06;;;;;;;6.50;1.98;;;24.70;50.20;;;;;;5084139;28;20483;-64
2022/05/13 13:14:47;;;;;;;6.10;2.30;;;24.70;50.20;;;;;;5080909;28;20020;-63
2022/05/13 13:17:30;;;;;;;4.07;2.00;;;24.80;50.30;;;;;;5074016;28;20040;-65
2022/05/13 13:20:01;;;;;;;7.32;2.05;;;24.80;48.90;;;;;;5073953;28;20083;-64
2022/05/13 13:22:33;;;;;;;5.50;2.28;;;24.90;48.50;;;;;;5082399;28;20024;-63
2022/05/13 13:24:59;;;;;;;9.40;2.33;;;24.90;48.30;;;;;;5077684;28;20048;-63
2022/05/13 13:27:30;;;;;;;4.15;1.98;;;24.90;48.10;;;;;;5081718;28;20040;-63
2022/05/13 13:29:58;;;;;;;4.95;2.25;;;24.90;47.80;;;;;;5084559;28;20036;-63
2022/05/13 13:32:24;;;;;;;4.60;1.58;;;24.90;48.00;;;;;;5080952;28;20028;-63
2022/05/13 13:35:01;;;;;;;6.75;1.95;;;24.90;48.40;;;;;;5091891;28;20024;-63
2022/05/13 13:37:38;;;;;;;7.50;2.20;;;25.00;47.90;;;;;;5079803;28;20434;-63
2022/05/13 13:40:21;;;;;;;7.15;2.08;;;25.10;48.40;;;;;;5081031;28;20409;-60
2022/05/13 13:42:47;;;;;;;9.05;1.92;;;25.20;47.90;;;;;;5087382;28;20060;-61